Time;durP1;ratioP1;P1;durP2;ratioP2;P2;SDS_P1;SDS_P2;PMS_P1;PMS_P2;Temp;Humidity;BMP_temperature;BMP_pressure;BME280_temperature;BME280_humidity;BME280_pressure;Samples;Min_cycle;Max_cycle;Signal;HPM_P1;HPM_P2
2022/01/02 00:00:47;;;;;;;3.30;2.00;;;;;;;4.05;76.13;101331.61;84582;1335;22609;-70
2022/01/02 00:03:04;;;;;;;3.80;2.60;;;;;;;4.03;76.32;101335.40;84586;1333;26495;-70
2022/01/02 00:05:18;;;;;;;2.80;1.90;;;;;;;4.05;76.99;101329.54;84494;1336;22610;-70
2022/01/02 00:07:30;;;;;;;3.10;2.10;;;;;;;4.06;76.93;101322.98;84555;1334;22608;-70
2022/01/02 00:09:40;;;;;;;2.60;2.20;;;;;;;4.06;76.74;101323.69;84581;1335;25309;-70
2022/01/02 00:11:52;;;;;;;3.30;2.50;;;;;;;4.04;76.66;101325.23;84589;1334;22756;-70
2022/01/02 00:14:08;;;;;;;4.00;2.00;;;;;;;4.03;76.92;101325.38;84585;1327;23953;-70
2022/01/02 00:16:22;;;;;;;2.80;2.20;;;;;;;4.03;77.20;101324.69;84618;1333;22618;-70
2022/01/02 00:18:39;;;;;;;5.60;2.60;;;;;;;4.05;77.28;101328.00;84580;1334;25454;-70
2022/01/02 00:20:51;;;;;;;3.20;2.20;;;;;;;4.05;77.27;101335.76;84484;1334;23934;-75
2022/01/02 00:23:02;;;;;;;3.30;2.10;;;;;;;4.03;76.87;101329.87;84577;1335;22602;-76
2022/01/02 00:25:24;;;;;;;3.60;2.80;;;;;;;4.02;76.61;101323.48;84569;1334;22624;-69
2022/01/02 00:27:34;;;;;;;2.90;2.00;;;;;;;4.01;77.10;101323.83;84571;1334;22717;-71
2022/01/02 00:29:48;;;;;;;4.60;2.20;;;;;;;4.01;76.37;101323.14;84566;1331;24004;-70
2022/01/02 00:32:00;;;;;;;4.30;2.30;;;;;;;3.98;76.28;101326.58;84547;1335;24242;-71
2022/01/02 00:34:14;;;;;;;3.00;2.20;;;;;;;3.97;76.79;101331.74;84572;1330;25311;-70
2022/01/02 00:36:23;;;;;;;4.30;2.60;;;;;;;4.00;77.17;101330.05;84589;1334;22713;-75
2022/01/02 00:38:32;;;;;;;3.50;2.40;;;;;;;4.03;76.98;101327.10;84571;1334;22596;-76
2022/01/02 00:40:46;;;;;;;2.60;2.30;;;;;;;4.04;76.71;101323.84;84609;1334;22625;-76
2022/01/02 00:43:00;;;;;;;3.70;2.80;;;;;;;4.03;76.73;101321.23;84575;1334;22616;-75
2022/01/02 00:45:13;;;;;;;6.00;2.50;;;;;;;4.05;76.85;101320.04;84601;1335;22594;-76
2022/01/02 00:47:27;;;;;;;3.70;2.30;;;;;;;4.02;76.78;101317.27;84606;1335;24272;-75
2022/01/02 00:49:38;;;;;;;4.90;2.20;;;;;;;3.99;76.56;101317.43;84564;1335;26621;-76
2022/01/02 00:51:52;;;;;;;3.20;2.20;;;;;;;3.96;77.23;101315.17;84577;1334;24007;-75
2022/01/02 00:54:06;;;;;;;7.10;2.20;;;;;;;3.97;77.12;101317.94;84580;1332;22599;-75
2022/01/02 00:56:19;;;;;;;2.40;2.00;;;;;;;3.98;77.34;101318.98;84560;1332;22603;-69
2022/01/02 00:58:35;;;;;;;3.60;2.90;;;;;;;4.01;77.33;101318.99;84560;1332;22721;-70
2022/01/02 01:00:48;;;;;;;3.30;2.70;;;;;;;4.04;77.07;101312.98;84545;1334;23925;-75
2022/01/02 01:03:01;;;;;;;4.50;3.30;;;;;;;4.06;77.49;101309.35;84564;1335;22603;-74
2022/01/02 01:05:12;;;;;;;4.20;2.80;;;;;;;4.10;77.72;101302.29;84592;1333;22590;-70
2022/01/02 01:07:23;;;;;;;4.10;2.80;;;;;;;4.12;77.81;101298.83;84589;1331;23571;-70
2022/01/02 01:09:34;;;;;;;4.40;2.80;;;;;;;4.11;77.52;101301.25;84616;1327;23232;-69
2022/01/02 01:11:43;;;;;;;3.80;2.80;;;;;;;4.08;77.38;101297.61;84600;1330;22622;-69
2022/01/02 01:13:56;;;;;;;3.90;2.40;;;;;;;4.06;77.25;101296.56;84578;1335;22842;-69
2022/01/02 01:16:05;;;;;;;2.90;2.30;;;;;;;4.02;77.40;101298.11;84574;1335;22830;-75
2022/01/02 01:18:14;;;;;;;4.40;3.20;;;;;;;4.02;77.54;101295.17;84574;1335;24362;-74
2022/01/02 01:20:23;;;;;;;5.70;2.70;;;;;;;4.04;78.00;101291.73;84570;1333;22914;-70
2022/01/02 01:22:36;;;;;;;3.80;3.10;;;;;;;4.05;77.77;101290.02;84564;1331;22589;-69
2022/01/02 01:24:45;;;;;;;5.20;3.30;;;;;;;4.08;78.00;101288.45;84616;1334;25337;-75
2022/01/02 01:26:56;;;;;;;5.80;3.50;;;;;;;4.09;77.99;101283.12;84572;1334;23052;-74
2022/01/02 01:29:05;;;;;;;4.30;3.10;;;;;;;4.11;77.99;101286.58;84583;1334;23813;-74
2022/01/02 01:31:14;;;;;;;5.30;3.70;;;;;;;4.12;77.66;101283.30;84609;1335;22611;-70
2022/01/02 01:33:23;;;;;;;5.20;3.80;;;;;;;4.12;77.63;101283.11;84573;1335;22653;-70
2022/01/02 01:35:35;;;;;;;5.00;3.30;;;;;;;4.10;77.25;101280.70;84547;1330;22640;-74
2022/01/02 01:37:47;;;;;;;7.40;4.80;;;;;;;4.08;77.36;101272.39;84593;1334;22606;-74
2022/01/02 01:39:56;;;;;;;4.70;3.60;;;;;;;4.05;77.14;101264.80;84575;1334;22600;-70
2022/01/02 01:42:11;;;;;;;5.50;3.30;;;;;;;4.04;77.43;101257.02;84521;1334;22633;-69
2022/01/02 01:44:38;;;;;;;4.90;3.00;;;;;;;4.02;77.38;101243.37;84546;1335;24219;-70
2022/01/02 01:46:51;;;;;;;3.20;2.60;;;;;;;4.01;77.40;101238.71;84597;1331;24385;-69
2022/01/02 01:49:00;;;;;;;5.50;3.30;;;;;;;4.04;77.55;101245.10;84554;1327;22624;-69
2022/01/02 01:51:11;;;;;;;4.40;2.80;;;;;;;4.06;77.45;101243.73;84579;1334;22628;-74
2022/01/02 01:53:23;;;;;;;3.60;3.00;;;;;;;4.06;77.47;101239.08;84584;1330;25629;-75
2022/01/02 01:55:35;;;;;;;3.90;2.80;;;;;;;4.04;77.61;101234.40;84574;1333;22673;-75
2022/01/02 01:57:44;;;;;;;5.90;3.00;;;;;;;4.03;77.57;101235.08;84573;1334;22803;-74
2022/01/02 01:59:56;;;;;;;8.60;3.00;;;;;;;4.00;77.59;101232.86;84582;1335;22622;-73
2022/01/02 02:02:08;;;;;;;4.70;3.50;;;;;;;3.99;77.68;101230.77;84569;1330;22585;-74
2022/01/02 02:04:20;;;;;;;6.10;3.00;;;;;;;4.00;77.64;101224.90;84594;1330;22639;-74
2022/01/02 02:06:29;;;;;;;4.90;2.70;;;;;;;4.00;77.53;101227.66;84579;1330;22588;-74
2022/01/02 02:08:38;;;;;;;3.80;2.50;;;;;;;4.00;77.88;101229.91;84570;1333;23082;-75
2022/01/02 02:10:54;;;;;;;3.90;2.60;;;;;;;4.02;78.12;101220.23;84604;1333;22614;-70
2022/01/02 02:13:07;;;;;;;3.80;3.00;;;;;;;4.02;78.11;101217.82;84609;1334;22630;-70
2022/01/02 02:15:17;;;;;;;8.00;2.80;;;;;;;4.01;78.08;101216.10;84583;1333;22599;-75
2022/01/02 02:17:29;;;;;;;3.50;3.00;;;;;;;4.01;78.35;101211.44;84583;1326;24093;-75
2022/01/02 02:19:38;;;;;;;5.40;3.30;;;;;;;4.00;78.58;101206.44;84605;1330;23000;-70
2022/01/02 02:21:47;;;;;;;4.90;3.00;;;;;;;4.00;78.41;101207.29;84571;1334;25365;-69
2022/01/02 02:23:56;;;;;;;6.90;2.90;;;;;;;3.98;78.48;101201.06;84580;1334;22614;-69
2022/01/02 02:26:07;;;;;;;8.80;4.40;;;;;;;3.98;78.53;101199.86;84588;1331;22869;-74
2022/01/02 02:28:20;;;;;;;5.00;2.60;;;;;;;3.99;78.80;101196.58;84608;1334;22613;-74
2022/01/02 02:30:30;;;;;;;3.10;2.60;;;;;;;4.01;78.73;101193.65;84589;1330;25459;-74
2022/01/02 02:32:39;;;;;;;6.60;2.80;;;;;;;4.03;78.70;101186.73;84589;1335;22621;-76
2022/01/02 02:34:51;;;;;;;5.50;3.00;;;;;;;4.04;78.95;101185.20;84577;1334;22599;-69
2022/01/02 02:37:00;;;;;;;5.40;3.50;;;;;;;4.06;78.78;101183.66;84597;1335;22639;-69
2022/01/02 02:39:12;;;;;;;5.70;3.40;;;;;;;4.08;78.90;101181.58;84568;1330;22810;-69
2022/01/02 02:41:21;;;;;;;5.70;3.70;;;;;;;4.08;79.17;101181.75;84607;1333;22608;-74
2022/01/02 02:43:38;;;;;;;8.00;4.60;;;;;;;4.08;78.87;101183.98;84555;1334;22964;-76
2022/01/02 02:50:51;;;;;;;5.20;3.80;;;;;;;4.09;79.09;101190.39;84566;1335;23820;-70
2022/01/02 02:53:02;;;;;;;5.10;3.50;;;;;;;4.10;79.42;101187.11;84552;1332;22580;-69
2022/01/02 02:55:12;;;;;;;7.10;4.00;;;;;;;4.13;79.28;101186.77;84548;1328;23152;-71
2022/01/02 02:57:24;;;;;;;7.80;4.40;;;;;;;4.14;79.39;101181.94;84570;1335;22613;-70
2022/01/02 02:59:35;;;;;;;13.10;4.30;;;;;;;4.13;79.25;101179.50;84606;1333;24249;-69
2022/01/02 03:01:45;;;;;;;7.00;4.40;;;;;;;4.13;79.35;101174.00;84567;1333;22603;-69
2022/01/02 03:03:54;;;;;;;6.10;4.30;;;;;;;4.15;79.46;101171.05;84554;1333;22596;-71
2022/01/02 03:06:03;;;;;;;6.90;3.80;;;;;;;4.17;79.64;101170.02;84567;1335;22613;-75
2022/01/02 03:08:12;;;;;;;6.30;4.10;;;;;;;4.17;79.67;101168.98;84554;1331;22603;-74
2022/01/02 03:10:21;;;;;;;5.70;4.10;;;;;;;4.16;79.34;101164.33;84570;1332;22626;-71
2022/01/02 03:12:29;;;;;;;6.00;3.80;;;;;;;4.17;79.56;101163.98;84587;1332;22605;-71
2022/01/02 03:14:38;;;;;;;7.30;5.80;;;;;;;4.18;79.69;101156.38;84558;1331;22815;-75
2022/01/02 03:16:47;;;;;;;6.80;3.80;;;;;;;4.20;79.79;101148.27;84559;1334;22601;-76
2022/01/02 03:18:56;;;;;;;8.30;4.40;;;;;;;4.22;79.91;101141.35;84595;1334;22810;-75
2022/01/02 03:21:05;;;;;;;5.90;3.90;;;;;;;4.25;79.70;101133.26;84568;1333;22641;-76
2022/01/02 03:23:14;;;;;;;6.70;4.30;;;;;;;4.24;79.87;101128.75;84584;1330;23864;-76
2022/01/02 03:25:23;;;;;;;6.30;4.70;;;;;;;4.21;79.86;101116.31;84580;1332;25546;-70
2022/01/02 03:27:35;;;;;;;5.60;3.80;;;;;;;4.19;79.70;101111.31;84540;1331;22602;-70
2022/01/02 03:29:44;;;;;;;8.10;4.50;;;;;;;4.19;79.91;101107.17;84583;1334;23926;-76
2022/01/02 03:31:56;;;;;;;7.20;5.00;;;;;;;4.21;80.03;101107.35;84598;1332;22591;-76
2022/01/02 03:34:07;;;;;;;9.10;4.60;;;;;;;4.23;80.09;101110.27;84572;1331;22623;-76
2022/01/02 03:36:19;;;;;;;6.50;4.90;;;;;;;4.23;80.13;101105.27;84560;1332;22879;-76
2022/01/02 03:38:31;;;;;;;11.00;5.30;;;;;;;4.21;79.84;101100.27;84585;1332;22611;-76
2022/01/02 03:40:43;;;;;;;8.70;5.70;;;;;;;4.21;80.23;101099.05;84568;1332;25492;-70
2022/01/02 03:42:52;;;;;;;6.10;4.80;;;;;;;4.22;80.07;101097.31;84563;1331;22615;-72
2022/01/02 03:45:04;;;;;;;8.60;6.50;;;;;;;4.23;80.09;101089.71;84603;1329;24297;-70
2022/01/02 03:47:13;;;;;;;5.30;4.30;;;;;;;4.23;80.17;101084.02;84479;1335;22669;-71
2022/01/02 03:49:22;;;;;;;7.20;4.50;;;;;;;4.23;80.34;101082.46;84552;1333;22611;-71
2022/01/02 03:51:31;;;;;;;8.40;4.80;;;;;;;4.24;80.44;101081.44;84578;1330;22600;-70
2022/01/02 03:53:40;;;;;;;10.00;6.30;;;;;;;4.25;80.48;101081.61;84580;1332;26544;-70
2022/01/02 03:55:49;;;;;;;6.10;4.70;;;;;;;4.25;80.49;101078.52;84583;1332;23900;-75
2022/01/02 03:57:58;;;;;;;7.60;4.70;;;;;;;4.22;80.65;101074.01;84591;1333;24268;-75
2022/01/02 04:00:12;;;;;;;7.50;5.40;;;;;;;4.20;80.68;101068.66;84598;1333;22635;-70
2022/01/02 04:02:22;;;;;;;7.60;4.50;;;;;;;4.20;80.68;101064.34;84577;1331;22661;-73
2022/01/02 04:04:31;;;;;;;11.10;4.90;;;;;;;4.20;80.78;101054.67;84600;1332;23684;-71
2022/01/02 04:06:40;;;;;;;7.10;4.10;;;;;;;4.19;80.61;101043.96;84594;1333;22614;-70
2022/01/02 04:08:50;;;;;;;8.00;3.80;;;;;;;4.18;80.92;101050.34;84557;1330;23978;-71
2022/01/02 04:11:01;;;;;;;7.10;4.20;;;;;;;4.15;80.85;101051.75;84585;1332;23795;-70
2022/01/02 04:13:13;;;;;;;8.70;5.60;;;;;;;4.13;80.81;101048.80;84572;1327;23141;-70
2022/01/02 04:15:25;;;;;;;5.60;4.80;;;;;;;4.11;81.10;101041.73;84566;1330;22728;-76
2022/01/02 04:17:34;;;;;;;9.70;5.30;;;;;;;4.09;81.20;101041.20;84582;1330;22710;-75
2022/01/02 04:19:43;;;;;;;6.40;5.20;;;;;;;4.09;81.04;101037.05;84571;1334;23947;-74
2022/01/02 04:21:55;;;;;;;7.10;5.90;;;;;;;4.11;81.19;101032.23;84568;1332;22629;-75
2022/01/02 04:24:04;;;;;;;6.80;5.40;;;;;;;4.13;81.16;101019.95;84586;1330;23854;-75
2022/01/02 04:26:19;;;;;;;7.90;6.10;;;;;;;4.15;81.38;101005.98;84557;1335;25313;-74
2022/01/02 04:28:29;;;;;;;11.90;5.60;;;;;;;4.18;81.35;100996.81;84576;1327;22618;-75
2022/01/02 04:30:38;;;;;;;8.80;4.80;;;;;;;4.18;81.26;100991.12;84573;1330;22814;-75
2022/01/02 04:32:49;;;;;;;11.00;5.40;;;;;;;4.16;81.27;100981.11;84577;1332;22599;-75
2022/01/02 04:34:57;;;;;;;5.90;4.50;;;;;;;4.13;81.28;100973.35;84605;1330;26466;-74
2022/01/02 04:37:06;;;;;;;10.60;5.10;;;;;;;4.10;81.29;100967.83;84560;1330;22614;-75
2022/01/02 04:39:15;;;;;;;7.10;5.70;;;;;;;4.11;81.27;100958.67;84586;1332;24264;-75
2022/01/02 04:41:24;;;;;;;6.60;4.40;;;;;;;4.11;81.22;100953.15;84575;1330;26517;-70
2022/01/02 04:43:33;;;;;;;6.50;4.80;;;;;;;4.11;81.36;100947.98;84565;1330;22755;-71
2022/01/02 04:45:44;;;;;;;7.30;4.60;;;;;;;4.10;81.52;100943.14;84599;1332;22661;-70
2022/01/02 04:47:56;;;;;;;7.50;4.90;;;;;;;4.10;81.43;100940.56;84578;1332;22827;-70
2022/01/02 04:50:07;;;;;;;7.10;5.00;;;;;;;4.10;81.82;100935.52;83849;1335;1003717;-74
2022/01/02 04:52:15;;;;;;;11.80;5.60;;;;;;;4.07;81.67;100928.10;84412;1331;261188;-75
2022/01/02 04:54:24;;;;;;;7.50;5.60;;;;;;;4.05;81.90;100929.34;84578;1331;22951;-75
2022/01/02 04:56:33;;;;;;;7.00;5.20;;;;;;;4.06;81.78;100929.15;84575;1331;24142;-74
2022/01/02 04:58:44;;;;;;;7.60;4.80;;;;;;;4.07;81.94;100923.11;84582;1332;24312;-75
2022/01/02 05:00:53;;;;;;;7.60;4.40;;;;;;;4.08;82.21;100927.42;84550;1333;22614;-74
2022/01/02 05:03:03;;;;;;;6.40;5.10;;;;;;;4.07;82.26;100922.23;84573;1325;22775;-75
2022/01/02 05:05:12;;;;;;;6.50;5.20;;;;;;;4.07;82.12;100920.34;84606;1333;24398;-75
2022/01/02 05:07:21;;;;;;;12.20;5.90;;;;;;;4.08;82.13;100920.52;84571;1333;23085;-76
2022/01/02 05:09:31;;;;;;;10.00;5.80;;;;;;;4.10;82.51;100920.70;84593;1332;22958;-72
2022/01/02 05:11:43;;;;;;;7.50;5.00;;;;;;;4.13;82.43;100926.72;84499;1332;22925;-70
2022/01/02 05:13:55;;;;;;;10.40;5.00;;;;;;;4.16;82.39;100930.34;84561;1327;22828;-70
2022/01/02 05:16:08;;;;;;;4.70;4.30;;;;;;;4.18;82.30;100934.30;84602;1329;22558;-75
2022/01/02 05:18:17;;;;;;;6.30;4.80;;;;;;;4.21;82.51;100923.59;84559;1328;22625;-74
2022/01/02 05:20:29;;;;;;;12.50;6.30;;;;;;;4.24;82.44;100912.19;84565;1330;22560;-75
2022/01/02 05:22:38;;;;;;;6.60;4.50;;;;;;;4.25;82.58;100908.05;84574;1329;22623;-75
2022/01/02 05:24:47;;;;;;;7.20;5.70;;;;;;;4.27;82.68;100910.63;84580;1332;25283;-69
2022/01/02 05:26:59;;;;;;;7.00;5.00;;;;;;;4.27;82.66;100898.52;84570;1331;22655;-69
2022/01/02 05:29:12;;;;;;;8.50;4.50;;;;;;;4.26;82.52;100890.42;84579;1332;22757;-70
2022/01/02 05:31:24;;;;;;;6.20;5.10;;;;;;;4.29;82.81;100880.39;84624;1331;25486;-75
2022/01/02 05:33:33;;;;;;;6.00;4.40;;;;;;;4.28;83.03;100873.82;84565;1334;25993;-75
2022/01/02 05:35:41;;;;;;;6.20;4.80;;;;;;;4.29;83.19;100872.62;84595;1331;24281;-74
2022/01/02 05:37:50;;;;;;;7.40;5.30;;;;;;;4.30;83.26;100869.52;84585;1330;25261;-75
2022/01/02 05:39:59;;;;;;;8.70;5.60;;;;;;;4.31;83.12;100869.34;84557;1330;22596;-70
2022/01/02 05:42:12;;;;;;;11.70;5.30;;;;;;;4.31;83.29;100867.27;84572;1327;23143;-69
2022/01/02 05:44:24;;;;;;;8.60;5.30;;;;;;;4.31;83.59;100858.61;84536;1334;24416;-69
2022/01/02 05:46:33;;;;;;;9.90;5.20;;;;;;;4.31;83.52;100849.98;84557;1331;23947;-72
2022/01/02 05:48:42;;;;;;;6.80;5.10;;;;;;;4.32;83.97;100841.00;84572;1333;22717;-69
2022/01/02 05:50:54;;;;;;;7.30;5.90;;;;;;;4.32;83.82;100831.49;84570;1326;22595;-70
2022/01/02 05:53:03;;;;;;;9.70;5.30;;;;;;;4.31;84.20;100828.21;84570;1330;23970;-70
2022/01/02 05:55:16;;;;;;;8.80;5.10;;;;;;;4.33;84.11;100824.41;84587;1330;24274;-74
2022/01/02 05:57:27;;;;;;;11.70;6.00;;;;;;;4.35;84.19;100824.92;84553;1332;25574;-75
2022/01/02 05:59:39;;;;;;;10.40;6.80;;;;;;;4.35;84.41;100826.98;84585;1330;22593;-72
2022/01/02 06:01:47;;;;;;;12.20;6.90;;;;;;;4.34;84.42;100826.83;84555;1330;23991;-74
2022/01/02 06:03:57;;;;;;;9.80;6.60;;;;;;;4.35;84.46;100828.90;84576;1330;22598;-75
2022/01/02 06:06:06;;;;;;;13.10;7.00;;;;;;;4.34;84.26;100831.66;84579;1330;25456;-71
2022/01/02 06:08:15;;;;;;;11.20;7.20;;;;;;;4.35;84.33;100830.80;84536;1332;22638;-70
2022/01/02 06:10:24;;;;;;;15.10;8.20;;;;;;;4.35;84.44;100825.96;84588;1329;22633;-73
2022/01/02 06:12:33;;;;;;;11.30;6.70;;;;;;;4.36;84.81;100819.21;84581;1324;22632;-74
2022/01/02 06:14:42;;;;;;;11.30;7.10;;;;;;;4.38;84.85;100813.52;84573;1330;22813;-70
2022/01/02 06:16:52;;;;;;;9.20;7.10;;;;;;;4.39;85.02;100814.02;84541;1332;22590;-70
2022/01/02 06:19:01;;;;;;;11.50;7.60;;;;;;;4.41;84.90;100812.98;84554;1330;22808;-70
2022/01/02 06:21:09;;;;;;;14.30;8.30;;;;;;;4.39;84.97;100808.50;84580;1331;24075;-74
2022/01/02 06:23:18;;;;;;;13.30;8.40;;;;;;;4.40;85.41;100816.95;84513;1332;25340;-74
2022/01/02 06:25:27;;;;;;;13.10;8.00;;;;;;;4.42;85.56;100813.66;84573;1330;22604;-73
2022/01/02 06:27:36;;;;;;;10.70;7.90;;;;;;;4.44;85.05;100815.73;84552;1332;22625;-75
2022/01/02 06:29:48;;;;;;;17.20;8.70;;;;;;;4.47;85.35;100809.13;84587;1332;23168;-73
2022/01/02 06:31:57;;;;;;;13.70;8.10;;;;;;;4.50;84.96;100802.73;84562;1331;22605;-75
2022/01/02 06:34:09;;;;;;;16.60;10.00;;;;;;;4.52;85.32;100792.70;84569;1327;22608;-75
2022/01/02 06:36:21;;;;;;;16.20;10.60;;;;;;;4.53;85.40;100792.00;84579;1332;25583;-73
2022/01/02 06:38:33;;;;;;;16.80;9.90;;;;;;;4.56;85.45;100781.27;84522;1332;22733;-75
2022/01/02 06:40:42;;;;;;;17.10;10.80;;;;;;;4.57;85.39;100769.84;84577;1332;23921;-71
2022/01/02 06:42:51;;;;;;;18.00;11.60;;;;;;;4.57;85.41;100765.01;84566;1332;22611;-71
2022/01/02 06:45:00;;;;;;;17.00;10.20;;;;;;;4.57;85.48;100762.59;84577;1328;22811;-73
2022/01/02 06:47:11;;;;;;;17.70;11.30;;;;;;;4.58;85.51;100761.36;84498;1332;23964;-74
2022/01/02 06:49:23;;;;;;;21.20;11.40;;;;;;;4.60;85.73;100759.30;84576;1327;22637;-74
2022/01/02 06:51:35;;;;;;;17.50;10.90;;;;;;;4.64;85.79;100754.77;84556;1327;22964;-73
2022/01/02 06:53:43;;;;;;;18.10;11.00;;;;;;;4.65;85.86;100744.04;84553;1333;22593;-74
2022/01/02 06:55:55;;;;;;;19.90;11.90;;;;;;;4.62;86.52;100749.08;84577;1324;22609;-71
2022/01/02 06:58:06;;;;;;;20.10;11.70;;;;;;;4.57;86.31;100746.02;84552;1331;22616;-70
2022/01/02 07:00:15;;;;;;;19.30;12.00;;;;;;;4.55;86.54;100745.50;84580;1330;23906;-70
2022/01/02 07:02:24;;;;;;;20.40;13.20;;;;;;;4.54;86.28;100746.91;84572;1330;22624;-71
2022/01/02 07:04:36;;;;;;;20.50;12.40;;;;;;;4.55;86.44;100748.25;84578;1327;22600;-71
2022/01/02 07:06:46;;;;;;;19.90;12.30;;;;;;;4.60;86.45;100742.54;84562;1334;23885;-71
2022/01/02 07:08:55;;;;;;;15.70;11.40;;;;;;;4.64;86.12;100753.05;84569;1332;22704;-72
2022/01/02 07:11:05;;;;;;;18.70;12.30;;;;;;;4.65;86.95;100745.42;84589;1331;22707;-71
2022/01/02 07:13:14;;;;;;;19.00;12.30;;;;;;;4.66;86.59;100743.86;84571;1330;22863;-71
2022/01/02 07:15:26;;;;;;;19.20;12.80;;;;;;;4.70;86.83;100753.01;84496;1333;22619;-71
2022/01/02 07:17:37;;;;;;;21.30;12.80;;;;;;;4.71;86.80;100746.94;84566;1335;25443;-71
2022/01/02 07:19:50;;;;;;;18.10;11.00;;;;;;;4.74;86.63;100742.08;84587;1332;22892;-72
2022/01/02 07:22:00;;;;;;;20.40;11.80;;;;;;;4.78;86.83;100737.38;84569;1330;22707;-71
2022/01/02 07:24:09;;;;;;;23.80;12.80;;;;;;;4.81;86.63;100733.19;84581;1328;22617;-72
2022/01/02 07:26:18;;;;;;;18.30;11.30;;;;;;;4.84;86.68;100726.80;84564;1331;24129;-75
2022/01/02 07:28:29;;;;;;;23.40;14.00;;;;;;;4.86;86.61;100719.33;84557;1324;24268;-74
2022/01/02 07:30:41;;;;;;;23.40;13.50;;;;;;;4.88;87.22;100712.23;84550;1333;22704;-71
2022/01/02 07:32:50;;;;;;;24.50;14.40;;;;;;;4.89;87.09;100715.85;84518;1327;22823;-72
2022/01/02 07:35:04;;;;;;;22.50;14.00;;;;;;;4.90;87.07;100719.46;84551;1334;22619;-75
2022/01/02 07:37:13;;;;;;;21.60;13.00;;;;;;;4.92;87.20;100713.56;84557;1330;25944;-74
2022/01/02 07:39:22;;;;;;;26.10;13.50;;;;;;;4.94;87.30;100703.34;84545;1330;22596;-75
2022/01/02 07:41:31;;;;;;;23.40;12.50;;;;;;;4.95;87.30;100696.42;84562;1330;22628;-71
2022/01/02 07:43:42;;;;;;;21.40;13.70;;;;;;;4.97;87.44;100688.63;84571;1327;23152;-71
2022/01/02 07:45:51;;;;;;;21.00;13.70;;;;;;;4.98;87.50;100683.27;84557;1330;24085;-74
2022/01/02 07:48:03;;;;;;;26.10;13.70;;;;;;;4.98;87.36;100679.98;84565;1331;22638;-74
2022/01/02 07:50:13;;;;;;;26.90;14.90;;;;;;;5.01;87.58;100677.35;84546;1332;23055;-74
2022/01/02 07:52:22;;;;;;;26.80;14.20;;;;;;;5.02;87.66;100669.72;84551;1327;23054;-74
2022/01/02 07:54:30;;;;;;;23.40;14.90;;;;;;;5.04;87.97;100660.38;84615;1332;22819;-73
2022/01/02 07:56:40;;;;;;;24.90;13.60;;;;;;;5.03;87.81;100652.27;84543;1324;23028;-70
2022/01/02 07:58:49;;;;;;;25.10;14.10;;;;;;;5.04;87.73;100648.45;84547;1332;22966;-72
2022/01/02 08:00:58;;;;;;;26.20;13.30;;;;;;;5.07;87.62;100646.34;84580;1333;22616;-74
2022/01/02 08:03:06;;;;;;;25.60;14.00;;;;;;;5.11;88.34;100641.44;84543;1327;22594;-73
2022/01/02 08:05:19;;;;;;;28.00;15.30;;;;;;;5.11;88.08;100629.16;84566;1331;22822;-75
2022/01/02 08:07:31;;;;;;;24.80;14.20;;;;;;;5.13;88.27;100627.41;84582;1330;24247;-75
2022/01/02 08:09:40;;;;;;;27.80;16.30;;;;;;;5.15;88.36;100624.62;84568;1331;26514;-74
2022/01/02 08:11:52;;;;;;;24.90;13.60;;;;;;;5.17;88.19;100624.25;84579;1330;22980;-75
2022/01/02 08:14:01;;;;;;;23.90;13.20;;;;;;;5.21;88.36;100623.17;84539;1331;24245;-74
2022/01/02 08:16:10;;;;;;;21.90;12.50;;;;;;;5.25;88.30;100614.13;84564;1332;22596;-75
2022/01/02 08:18:22;;;;;;;27.20;15.10;;;;;;;5.31;88.05;100614.92;84550;1332;22589;-74
2022/01/02 08:20:34;;;;;;;25.50;14.00;;;;;;;5.36;88.11;100625.23;84546;1332;22661;-70
2022/01/02 08:22:46;;;;;;;27.20;15.00;;;;;;;5.41;88.40;100623.61;84558;1332;22593;-71
2022/01/02 08:24:57;;;;;;;28.60;15.20;;;;;;;5.45;88.14;100621.48;84545;1331;22622;-69
2022/01/02 08:27:06;;;;;;;26.50;15.10;;;;;;;5.48;88.31;100621.80;84553;1334;22641;-70
2022/01/02 08:29:15;;;;;;;27.60;14.80;;;;;;;5.54;88.31;100630.88;84585;1332;24946;-69
2022/01/02 08:31:24;;;;;;;25.50;13.30;;;;;;;5.60;88.39;100634.10;84587;1331;22835;-70
2022/01/02 08:33:33;;;;;;;25.30;13.80;;;;;;;5.67;88.27;100628.64;84543;1334;22609;-70
2022/01/02 08:35:42;;;;;;;23.90;14.20;;;;;;;5.73;88.41;100617.48;84565;1331;22623;-70
2022/01/02 08:37:54;;;;;;;25.00;14.30;;;;;;;5.78;88.47;100602.34;84545;1331;22637;-70
2022/01/02 08:40:07;;;;;;;31.10;15.40;;;;;;;5.80;88.49;100608.89;84573;1331;22681;-70
2022/01/02 08:42:19;;;;;;;29.60;16.70;;;;;;;5.85;88.52;100608.12;84591;1330;25607;-70
2022/01/02 08:44:35;;;;;;;29.20;15.90;;;;;;;5.88;88.31;100606.52;84567;1328;22604;-73
2022/01/02 08:46:46;;;;;;;25.00;14.70;;;;;;;5.90;88.41;100610.98;84553;1332;22699;-70
2022/01/02 08:48:55;;;;;;;23.90;13.10;;;;;;;5.93;88.38;100615.66;84576;1331;24322;-70
2022/01/02 08:51:07;;;;;;;23.50;13.00;;;;;;;5.94;88.48;100607.66;84568;1330;22603;-74
2022/01/02 08:53:16;;;;;;;27.30;15.40;;;;;;;6.02;88.77;100600.62;84544;1332;23896;-74
2022/01/02 08:55:25;;;;;;;31.20;15.80;;;;;;;6.13;88.93;100594.02;84572;1332;25319;-74
2022/01/02 08:57:34;;;;;;;28.20;15.40;;;;;;;6.19;88.70;100583.38;84551;1329;22637;-75
2022/01/02 08:59:44;;;;;;;28.40;15.20;;;;;;;6.20;88.73;100579.54;84574;1333;22607;-70
2022/01/02 09:01:53;;;;;;;31.10;17.40;;;;;;;6.25;88.52;100578.77;84560;1332;22622;-71
2022/01/02 09:04:01;;;;;;;29.00;14.80;;;;;;;6.27;88.50;100573.38;84549;1332;22603;-70
2022/01/02 09:06:10;;;;;;;25.90;14.90;;;;;;;6.29;88.58;100561.02;84575;1330;22616;-70
2022/01/02 09:08:20;;;;;;;24.80;15.20;;;;;;;6.35;88.62;100552.09;84577;1335;22585;-69
2022/01/02 09:10:28;;;;;;;26.50;14.20;;;;;;;6.40;88.59;100543.16;84582;1328;22614;-74
2022/01/02 09:12:38;;;;;;;28.30;15.00;;;;;;;6.46;88.80;100541.84;84570;1327;23060;-76
2022/01/02 09:14:50;;;;;;;31.00;17.20;;;;;;;6.52;88.76;100541.55;84571;1331;22591;-75
2022/01/02 09:16:59;;;;;;;29.30;16.40;;;;;;;6.55;88.58;100536.13;84582;1334;25455;-75
2022/01/02 09:19:09;;;;;;;30.90;17.20;;;;;;;6.56;88.48;100538.53;84579;1333;23941;-75
2022/01/02 09:21:17;;;;;;;31.70;16.90;;;;;;;6.59;88.62;100535.52;84609;1331;22632;-76
2022/01/02 09:23:27;;;;;;;26.60;15.00;;;;;;;6.64;88.43;100531.79;84568;1333;25442;-75
2022/01/02 09:25:39;;;;;;;25.60;15.00;;;;;;;6.69;88.59;100534.47;84580;1327;22750;-75
2022/01/02 09:27:48;;;;;;;24.40;14.60;;;;;;;6.74;88.34;100524.66;84581;1323;22617;-76
2022/01/02 09:29:58;;;;;;;28.20;15.10;;;;;;;6.79;88.45;100518.14;84586;1330;25985;-75
2022/01/02 09:32:10;;;;;;;29.50;15.80;;;;;;;6.82;88.34;100513.40;84593;1332;22829;-75
2022/01/02 09:34:20;;;;;;;32.20;15.70;;;;;;;6.86;88.30;100502.94;84571;1330;22602;-76
2022/01/02 09:36:31;;;;;;;25.60;15.00;;;;;;;6.88;88.30;100496.63;84484;1332;22626;-76
2022/01/02 09:38:40;;;;;;;21.60;13.90;;;;;;;6.92;88.27;100494.46;84577;1334;24014;-76
2022/01/02 09:40:50;;;;;;;25.30;14.40;;;;;;;6.96;88.12;100495.08;84610;1331;25555;-70
2022/01/02 09:43:02;;;;;;;25.40;13.40;;;;;;;7.00;88.20;100491.39;84581;1327;22606;-70
2022/01/02 09:45:13;;;;;;;22.60;14.00;;;;;;;7.04;88.28;100485.20;84532;1330;23070;-70
2022/01/02 09:47:25;;;;;;;21.30;13.60;;;;;;;7.09;88.49;100476.94;84597;1333;22617;-70
2022/01/02 09:49:35;;;;;;;25.70;14.60;;;;;;;7.14;88.54;100469.36;84577;1327;23105;-70
2022/01/02 09:51:45;;;;;;;19.80;12.90;;;;;;;7.17;88.50;100462.71;84548;1330;22674;-71
2022/01/02 09:53:57;;;;;;;28.10;16.20;;;;;;;7.22;88.57;100452.54;84574;1330;22625;-70
2022/01/02 09:56:10;;;;;;;19.90;13.40;;;;;;;7.29;88.45;100435.89;84581;1330;22628;-76
2022/01/02 09:58:19;;;;;;;20.00;13.10;;;;;;;7.35;88.61;100425.86;84554;1329;23953;-75
2022/01/02 10:00:31;;;;;;;23.00;14.00;;;;;;;7.39;88.43;100418.29;84555;1330;22650;-70
2022/01/02 10:03:03;;;;;;;22.80;13.20;;;;;;;7.44;88.63;100415.02;84546;1331;22612;-71
2022/01/02 10:05:15;;;;;;;22.40;15.20;;;;;;;7.48;88.68;100407.65;84567;1327;22587;-75
2022/01/02 10:07:35;;;;;;;24.30;14.30;;;;;;;7.48;88.51;100397.92;84546;1334;22604;-75
2022/01/02 10:09:50;;;;;;;19.30;13.00;;;;;;;7.52;88.34;100382.22;84575;1329;22620;-75
2022/01/02 10:12:26;;;;;;;18.50;13.30;;;;;;;7.55;88.39;100362.69;84555;1330;22623;-75
2022/01/02 10:14:38;;;;;;;23.20;13.60;;;;;;;7.60;88.49;100352.86;84593;1332;24379;-73